createdAt,value
2019-05-23T00:03:55.683Z,99.90
2019-05-23T00:09:00.698Z,99.90
2019-05-23T00:14:18.217Z,99.90
2019-05-23T00:24:30.781Z,99.90
2019-05-23T00:29:36.006Z,99.90
2019-05-23T00:34:43.014Z,99.90
2019-05-23T00:39:48.363Z,99.90
2019-05-23T00:44:53.981Z,99.90
2019-05-23T00:49:59.499Z,99.90
2019-05-23T00:55:06.240Z,99.90
2019-05-23T01:00:14.979Z,99.90
2019-05-23T01:05:20.728Z,99.90
2019-05-23T01:10:26.905Z,99.90
2019-05-23T01:15:32.988Z,99.90
2019-05-23T01:20:59.834Z,99.90
2019-05-23T01:26:06.385Z,99.90
2019-05-23T01:31:15.728Z,99.90
2019-05-23T01:36:21.173Z,99.90
2019-05-23T01:41:26.765Z,99.90
2019-05-23T01:46:31.974Z,99.90
2019-05-23T01:51:40.317Z,99.90
2019-05-23T01:56:45.811Z,99.90
2019-05-23T02:01:52.171Z,99.90
2019-05-23T02:06:57.775Z,99.90
2019-05-23T02:12:04.297Z,99.90
2019-05-23T02:17:11.459Z,99.90
2019-05-23T02:22:18.631Z,99.90
2019-05-23T02:27:25.500Z,99.90
2019-05-23T02:32:30.887Z,99.90
2019-05-23T02:37:50.964Z,99.90
2019-05-23T02:42:59.676Z,99.90
2019-05-23T02:48:11.833Z,99.90
2019-05-23T02:53:19.959Z,99.90
2019-05-23T02:58:31.555Z,99.90
2019-05-23T03:03:37.274Z,99.90
2019-05-23T03:08:44.026Z,99.90
2019-05-23T03:13:52.040Z,99.90
2019-05-23T03:19:01.222Z,99.90
2019-05-23T03:24:08.259Z,99.90
2019-05-23T03:29:13.383Z,99.90
2019-05-23T03:34:21.497Z,99.90
2019-05-23T03:39:27.668Z,99.90
2019-05-23T03:44:34.530Z,99.90
2019-05-23T03:49:40.195Z,99.90
2019-05-23T03:54:47.245Z,99.90
2019-05-23T03:59:52.600Z,99.90
2019-05-23T04:04:59.891Z,99.90
2019-05-23T04:10:07.142Z,99.90
2019-05-23T04:15:13.214Z,99.90
2019-05-23T04:20:19.004Z,99.90
2019-05-23T04:25:24.204Z,99.90
2019-05-23T04:30:29.713Z,99.90
2019-05-23T04:35:35.131Z,99.90
2019-05-23T04:40:40.371Z,99.90
2019-05-23T04:45:45.366Z,99.90
2019-05-23T04:50:50.258Z,99.90
2019-05-23T04:55:55.285Z,99.90
2019-05-23T05:01:02.289Z,99.90
2019-05-23T05:06:08.105Z,99.90
2019-05-23T05:11:16.809Z,99.90
2019-05-23T05:16:22.622Z,99.90
2019-05-23T05:21:28.311Z,99.90
2019-05-23T05:26:33.843Z,99.90
2019-05-23T05:31:39.277Z,99.90
2019-05-23T05:36:44.757Z,99.90
2019-05-23T05:41:50.533Z,99.90
2019-05-23T05:46:55.896Z,99.90
2019-05-23T05:52:01.714Z,99.90
2019-05-23T05:57:07.418Z,99.90
2019-05-23T06:02:14.246Z,99.90
2019-05-23T06:07:27.659Z,99.90
2019-05-23T06:12:33.390Z,99.90
2019-05-23T06:17:38.928Z,99.90
2019-05-23T06:22:46.330Z,99.90
2019-05-23T06:27:51.972Z,99.90
2019-05-23T06:32:57.542Z,99.90
2019-05-23T06:38:02.721Z,99.90
2019-05-23T06:43:08.578Z,99.90
2019-05-23T06:48:16.158Z,99.90
2019-05-23T06:53:21.297Z,99.90
2019-05-23T06:58:27.725Z,99.90
2019-05-23T07:03:42.488Z,99.90
2019-05-23T07:08:40.058Z,99.90
2019-05-23T07:13:46.797Z,99.90
2019-05-23T07:18:51.926Z,99.90
2019-05-23T07:23:57.673Z,99.90
2019-05-23T07:29:05.449Z,99.90
2019-05-23T07:34:11.182Z,99.90
2019-05-23T07:39:18.163Z,99.90
2019-05-23T07:44:24.528Z,99.90
2019-05-23T07:49:31.353Z,99.90
2019-05-23T07:54:42.007Z,99.90
2019-05-23T07:59:47.997Z,99.90
2019-05-23T08:04:53.679Z,99.80
2019-05-23T08:09:59.281Z,99.80
2019-05-23T08:15:05.355Z,99.00
2019-05-23T08:20:12.477Z,99.10
2019-05-23T08:25:17.677Z,99.60
2019-05-23T08:30:22.831Z,98.80
2019-05-23T08:35:28.264Z,99.10
2019-05-23T08:40:34.059Z,98.80
2019-05-23T08:45:39.400Z,99.20
2019-05-23T08:50:44.537Z,99.60
2019-05-23T08:55:50.149Z,99.10
2019-05-23T09:00:55.628Z,99.50
2019-05-23T09:06:01.988Z,99.10
2019-05-23T09:11:07.009Z,98.90
2019-05-23T09:16:12.472Z,99.00
2019-05-23T09:21:17.917Z,99.20
2019-05-23T09:26:23.675Z,98.50
2019-05-23T09:31:30.586Z,98.20
2019-05-23T09:36:36.312Z,99.20
2019-05-23T09:41:42.291Z,98.70
2019-05-23T09:46:48.153Z,98.50
2019-05-23T09:51:56.885Z,97.50
2019-05-23T09:57:00.215Z,96.70
2019-05-23T10:02:05.810Z,95.90
2019-05-23T10:07:11.491Z,95.70
2019-05-23T10:12:17.145Z,94.50
2019-05-23T10:17:22.629Z,96.50
2019-05-23T10:22:27.898Z,93.70
2019-05-23T10:27:33.246Z,92.50
2019-05-23T10:32:38.370Z,94.00
2019-05-23T10:37:44.412Z,92.90
2019-05-23T10:42:49.370Z,93.60
2019-05-23T10:47:54.282Z,93.20
2019-05-23T10:52:59.193Z,92.30
2019-05-23T10:58:04.770Z,91.90
2019-05-23T11:03:14.301Z,91.40
2019-05-23T11:08:20.757Z,86.70
2019-05-23T11:13:26.002Z,86.30
2019-05-23T11:18:31.262Z,90.80
2019-05-23T11:23:41.469Z,85.90
2019-05-23T11:28:46.705Z,87.20
2019-05-23T11:33:51.835Z,85.20
2019-05-23T11:38:56.765Z,87.30
2019-05-23T11:44:02.696Z,88.10
2019-05-23T11:49:08.471Z,87.80
2019-05-23T11:54:14.177Z,82.70
2019-05-23T11:59:19.133Z,85.30
2019-05-23T12:04:28.407Z,87.80
2019-05-23T12:09:34.233Z,85.10
2019-05-23T12:14:40.318Z,85.30
2019-05-23T12:19:45.950Z,81.00
2019-05-23T12:24:51.154Z,81.70
2019-05-23T12:29:57.091Z,80.20
2019-05-23T12:35:11.724Z,81.00
2019-05-23T12:40:11.633Z,84.40
2019-05-23T12:45:19.644Z,84.30
2019-05-23T12:50:28.383Z,79.00
2019-05-23T12:55:33.438Z,80.90
2019-05-23T13:00:47.305Z,82.40
2019-05-23T13:05:52.959Z,83.80
2019-05-23T13:10:58.215Z,78.90
2019-05-23T13:16:03.783Z,80.40
2019-05-23T13:21:08.807Z,79.60
2019-05-23T13:26:14.061Z,82.80
2019-05-23T13:31:19.037Z,83.70
2019-05-23T13:36:24.413Z,77.50
2019-05-23T13:41:29.669Z,82.40
2019-05-23T13:46:34.817Z,78.80
2019-05-23T13:51:39.852Z,81.20
2019-05-23T14:01:52.322Z,78.30
2019-05-23T14:06:57.555Z,79.60
2019-05-23T14:17:23.999Z,80.80
2019-05-23T14:22:31.003Z,78.50
2019-05-23T14:27:56.944Z,77.70
2019-05-23T14:33:04.101Z,78.10
2019-05-23T14:38:29.147Z,81.60
2019-05-23T14:43:22.375Z,81.90
2019-05-23T14:48:37.651Z,77.10
2019-05-23T14:53:46.246Z,76.40
2019-05-23T14:58:51.912Z,76.80
2019-05-23T15:03:57.346Z,72.10
2019-05-23T15:09:02.370Z,79.60
2019-05-23T15:14:07.757Z,73.90
2019-05-23T15:19:13.010Z,74.60
2019-05-23T15:24:18.354Z,74.20
2019-05-23T15:29:23.380Z,77.90
2019-05-23T15:34:28.654Z,72.00
2019-05-23T15:39:33.815Z,71.20
2019-05-23T15:44:39.393Z,72.80
2019-05-23T15:49:46.735Z,73.10
2019-05-23T15:54:56.073Z,69.50
2019-05-23T16:00:18.028Z,69.60
2019-05-23T16:05:23.956Z,71.50
2019-05-23T16:10:29.958Z,74.60
2019-05-23T16:15:35.832Z,72.90
2019-05-23T16:20:40.855Z,75.90
2019-05-23T16:25:46.542Z,76.30
2019-05-23T16:30:51.885Z,77.00
2019-05-23T16:35:57.056Z,74.00
2019-05-23T16:41:02.169Z,72.90
2019-05-23T16:46:07.734Z,75.20
2019-05-23T16:51:12.775Z,76.50
2019-05-23T16:56:26.490Z,77.10
2019-05-23T17:01:57.053Z,75.90
2019-05-23T17:06:59.462Z,76.70
2019-05-23T17:12:39.006Z,76.50
2019-05-23T17:18:18.327Z,77.90
2019-05-23T17:23:48.598Z,77.50
2019-05-23T17:28:54.685Z,78.70
2019-05-23T17:33:59.945Z,78.60
2019-05-23T17:39:08.474Z,77.70
2019-05-23T17:44:13.724Z,78.00
2019-05-23T17:49:18.917Z,77.40
2019-05-23T17:54:24.892Z,78.90
2019-05-23T17:59:30.351Z,78.70
2019-05-23T18:04:36.221Z,79.70
2019-05-23T18:09:41.426Z,76.70
2019-05-23T18:14:46.669Z,77.50
2019-05-23T18:25:13.113Z,76.90
2019-05-23T18:30:43.960Z,78.70
2019-05-23T18:35:49.190Z,79.40
2019-05-23T18:41:03.141Z,80.70
2019-05-23T18:46:07.403Z,81.20
2019-05-23T18:51:12.713Z,80.50
2019-05-23T18:56:17.796Z,80.40
2019-05-23T19:01:26.969Z,81.70
2019-05-23T19:06:32.822Z,80.80
2019-05-23T19:11:39.362Z,83.10
2019-05-23T19:16:44.456Z,81.80
2019-05-23T19:21:53.068Z,82.80
2019-05-23T19:26:59.769Z,82.10
2019-05-23T19:32:05.068Z,83.60
2019-05-23T19:37:11.101Z,84.00
2019-05-23T19:42:18.053Z,84.60
2019-05-23T19:47:23.534Z,86.70
2019-05-23T19:52:29.005Z,88.20
2019-05-23T19:57:34.491Z,88.50
2019-05-23T20:02:45.871Z,88.50
2019-05-23T20:07:51.738Z,89.20
2019-05-23T20:12:56.714Z,89.70
2019-05-23T20:18:02.226Z,90.00
2019-05-23T20:23:08.033Z,90.00
2019-05-23T20:28:13.342Z,90.50
2019-05-23T20:33:18.481Z,90.70
2019-05-23T20:38:29.961Z,91.00
2019-05-23T20:43:35.144Z,91.20
2019-05-23T20:48:40.760Z,91.40
2019-05-23T20:53:45.758Z,91.70
2019-05-23T20:58:50.673Z,91.70
2019-05-23T21:03:57.448Z,92.00
2019-05-23T21:09:02.646Z,92.00
2019-05-23T21:14:07.996Z,92.00
2019-05-23T21:19:13.475Z,92.30
2019-05-23T21:24:18.472Z,92.30
2019-05-23T21:29:23.546Z,91.50
2019-05-23T21:34:28.968Z,91.90
2019-05-23T21:39:34.423Z,92.10
2019-05-23T21:44:40.059Z,91.70
2019-05-23T21:49:45.673Z,92.10
2019-05-23T21:54:50.727Z,92.80
2019-05-23T21:59:56.963Z,93.00
2019-05-23T22:05:12.661Z,93.10
2019-05-23T22:10:18.069Z,93.30
2019-05-23T22:15:36.854Z,93.30
2019-05-23T22:20:42.406Z,93.70
2019-05-23T22:25:47.733Z,93.90
2019-05-23T22:30:53.382Z,93.90
2019-05-23T22:36:00.581Z,94.20
2019-05-23T22:41:05.544Z,94.30
2019-05-23T22:46:10.768Z,94.20
2019-05-23T22:51:16.388Z,94.40
2019-05-23T22:56:21.719Z,94.40
2019-05-23T23:01:28.446Z,94.30
2019-05-23T23:06:34.586Z,94.00
2019-05-23T23:11:40.085Z,94.00
2019-05-23T23:16:45.305Z,94.30
2019-05-23T23:21:50.590Z,94.20
2019-05-23T23:26:55.831Z,94.80
2019-05-23T23:32:03.788Z,94.50
2019-05-23T23:37:08.219Z,94.80
2019-05-23T23:42:13.811Z,94.90
2019-05-23T23:47:36.824Z,95.00
2019-05-23T23:53:00.138Z,95.70
2019-05-23T23:58:04.731Z,95.90
